createdAt,value
2023-02-22T00:02:11.256Z,92.36
2023-02-22T00:04:56.878Z,92.77
2023-02-22T00:07:41.977Z,92.30
2023-02-22T00:10:27.530Z,91.80
2023-02-22T00:13:14.460Z,91.77
2023-02-22T00:16:01.145Z,91.53
2023-02-22T00:18:46.204Z,91.18
2023-02-22T00:21:31.064Z,90.59
2023-02-22T00:24:25.003Z,90.72
2023-02-22T00:27:09.773Z,91.14
2023-02-22T00:29:56.445Z,90.70
2023-02-22T00:32:42.877Z,90.67
2023-02-22T00:35:30.151Z,91.32
2023-02-22T00:38:18.351Z,92.17
2023-02-22T00:41:03.155Z,92.07
2023-02-22T00:43:48.821Z,91.82
2023-02-22T00:46:34.121Z,92.22
2023-02-22T00:49:19.307Z,92.49
2023-02-22T00:52:04.909Z,92.44
2023-02-22T00:54:50.121Z,92.53
2023-02-22T00:57:35.280Z,93.46
2023-02-22T01:00:24.346Z,92.69
2023-02-22T01:03:11.394Z,92.59
2023-02-22T01:05:56.363Z,92.37
2023-02-22T01:08:44.855Z,91.87
2023-02-22T01:11:30.554Z,92.93
2023-02-22T01:14:15.506Z,93.08
2023-02-22T01:17:00.925Z,92.92
2023-02-22T01:19:46.114Z,93.38
2023-02-22T01:22:30.879Z,92.66
2023-02-22T01:25:22.974Z,92.88
2023-02-22T01:28:07.983Z,93.60
2023-02-22T01:30:53.205Z,93.74
2023-02-22T01:33:39.021Z,93.23
2023-02-22T01:36:24.380Z,92.66
2023-02-22T01:39:10.218Z,92.61
2023-02-22T01:41:56.491Z,92.21
2023-02-22T01:44:41.520Z,92.99
2023-02-22T01:47:26.561Z,93.25
2023-02-22T01:50:11.495Z,93.62
2023-02-22T01:52:56.879Z,92.81
2023-02-22T01:55:42.387Z,92.93
2023-02-22T01:58:30.455Z,92.71
2023-02-22T02:01:18.411Z,93.57
2023-02-22T02:04:11.737Z,93.15
2023-02-22T02:07:00.861Z,93.50
2023-02-22T02:10:01.317Z,93.38
2023-02-22T02:12:50.059Z,93.26
2023-02-22T02:15:35.466Z,93.10
2023-02-22T02:18:21.366Z,92.67
2023-02-22T02:21:38.465Z,93.02
2023-02-22T02:25:11.571Z,92.45
2023-02-22T02:28:21.849Z,92.29
2023-02-22T02:31:38.932Z,91.98
2023-02-22T02:34:53.621Z,91.47
2023-02-22T02:37:57.628Z,91.89
2023-02-22T02:40:57.324Z,92.59
2023-02-22T02:43:51.819Z,92.61
2023-02-22T02:46:36.871Z,92.38
2023-02-22T02:49:29.808Z,92.43
2023-02-22T02:52:18.491Z,92.16
2023-02-22T02:55:06.321Z,92.51
2023-02-22T02:57:51.934Z,93.15
2023-02-22T03:00:40.838Z,92.99
2023-02-22T03:03:46.138Z,92.32
2023-02-22T03:06:49.580Z,92.51
2023-02-22T03:09:54.985Z,92.38
2023-02-22T03:12:55.300Z,92.35
2023-02-22T03:16:19.246Z,92.54
2023-02-22T03:19:16.290Z,92.43
2023-02-22T03:22:13.951Z,92.06
2023-02-22T03:25:07.035Z,91.54
2023-02-22T03:28:02.205Z,91.88
2023-02-22T03:30:55.720Z,92.42
2023-02-22T03:33:48.963Z,92.71
2023-02-22T03:36:38.997Z,91.98
2023-02-22T03:39:31.320Z,92.31
2023-02-22T03:42:36.131Z,92.56
2023-02-22T03:45:25.575Z,92.38
2023-02-22T03:48:23.544Z,92.29
2023-02-22T03:51:08.878Z,92.95
2023-02-22T03:53:54.210Z,92.93
2023-02-22T03:56:47.683Z,93.07
2023-02-22T03:59:33.199Z,93.36
2023-02-22T04:02:19.006Z,93.28
2023-02-22T04:05:04.203Z,92.96
2023-02-22T04:07:49.458Z,92.76
2023-02-22T04:10:34.777Z,93.20
2023-02-22T04:13:19.704Z,93.69
2023-02-22T04:16:05.303Z,93.61
2023-02-22T04:18:50.220Z,93.31
2023-02-22T04:21:35.275Z,93.37
2023-02-22T04:24:20.335Z,93.31
2023-02-22T04:27:05.275Z,93.20
2023-02-22T04:29:50.334Z,93.35
2023-02-22T04:32:35.687Z,93.45
2023-02-22T04:35:20.598Z,93.88
2023-02-22T04:38:05.834Z,93.75
2023-02-22T04:40:51.704Z,92.90
2023-02-22T04:43:36.906Z,93.53
2023-02-22T04:46:22.007Z,92.87
2023-02-22T04:49:07.245Z,93.49
2023-02-22T04:51:52.411Z,93.93
2023-02-22T04:54:37.589Z,92.76
2023-02-22T04:57:23.442Z,93.05
2023-02-22T05:00:10.855Z,93.17
2023-02-22T05:02:56.076Z,93.07
2023-02-22T05:05:41.130Z,92.53
2023-02-22T05:08:26.192Z,92.45
2023-02-22T05:11:10.963Z,92.62
2023-02-22T05:13:57.076Z,92.88
2023-02-22T05:16:42.185Z,92.54
2023-02-22T05:19:27.066Z,92.66
2023-02-22T05:22:11.968Z,93.38
2023-02-22T05:24:57.244Z,93.24
2023-02-22T05:27:42.237Z,93.49
2023-02-22T05:30:30.677Z,93.52
2023-02-22T05:33:16.280Z,94.16
2023-02-22T05:36:01.082Z,94.15
2023-02-22T05:38:45.838Z,94.24
2023-02-22T05:41:30.815Z,93.81
2023-02-22T05:44:15.959Z,94.23
2023-02-22T05:47:00.937Z,93.95
2023-02-22T05:49:46.030Z,93.48
2023-02-22T05:52:30.838Z,93.49
2023-02-22T05:55:18.861Z,94.37
2023-02-22T05:58:05.684Z,94.36
2023-02-22T06:00:50.784Z,93.79
2023-02-22T06:03:37.060Z,93.83
2023-02-22T06:06:22.650Z,94.02
2023-02-22T06:09:07.758Z,93.23
2023-02-22T06:11:54.414Z,93.74
2023-02-22T06:14:40.910Z,93.63
2023-02-22T06:17:25.825Z,93.49
2023-02-22T06:20:13.627Z,93.97
2023-02-22T06:23:01.428Z,94.24
2023-02-22T06:25:46.473Z,94.31
2023-02-22T06:28:31.303Z,93.99
2023-02-22T06:31:16.648Z,94.54
2023-02-22T06:34:05.587Z,94.53
2023-02-22T06:36:50.982Z,94.12
2023-02-22T06:39:35.916Z,94.17
2023-02-22T06:42:20.805Z,93.84
2023-02-22T06:45:06.256Z,93.91
2023-02-22T06:47:51.301Z,94.01
2023-02-22T06:50:36.468Z,93.82
2023-02-22T06:53:23.055Z,93.75
2023-02-22T06:56:08.253Z,93.63
2023-02-22T06:58:53.121Z,93.75
2023-02-22T07:01:41.402Z,93.71
2023-02-22T07:04:26.235Z,93.66
2023-02-22T07:07:11.193Z,93.73
2023-02-22T07:09:55.959Z,93.42
2023-02-22T07:12:40.824Z,93.51
2023-02-22T07:15:27.959Z,93.72
2023-02-22T07:18:13.995Z,93.97
2023-02-22T07:20:59.431Z,93.26
2023-02-22T07:23:50.984Z,93.20
2023-02-22T07:26:41.299Z,92.87
2023-02-22T07:29:26.316Z,93.13
2023-02-22T07:32:11.551Z,93.03
2023-02-22T07:34:56.653Z,93.13
2023-02-22T07:37:41.361Z,92.96
2023-02-22T07:40:27.274Z,93.39
2023-02-22T07:43:17.892Z,92.84
2023-02-22T07:46:03.104Z,92.62
2023-02-22T07:48:48.555Z,92.92
2023-02-22T07:51:33.346Z,92.31
2023-02-22T07:54:18.287Z,92.62
2023-02-22T07:57:03.315Z,92.39
2023-02-22T07:59:49.002Z,92.46
2023-02-22T08:02:34.410Z,92.02
2023-02-22T08:05:21.056Z,91.57
2023-02-22T08:08:07.950Z,91.64
2023-02-22T08:10:53.688Z,90.34
2023-02-22T08:13:39.428Z,90.03
2023-02-22T08:16:24.527Z,89.67
2023-02-22T08:19:09.747Z,88.80
2023-02-22T08:21:54.906Z,89.25
2023-02-22T08:24:40.878Z,89.41
2023-02-22T08:27:27.893Z,88.30
2023-02-22T08:30:23.171Z,87.86
2023-02-22T08:33:09.422Z,88.50
2023-02-22T08:35:54.406Z,87.83
2023-02-22T08:38:39.428Z,88.24
2023-02-22T08:41:24.369Z,87.40
2023-02-22T08:44:09.712Z,86.11
2023-02-22T08:46:55.161Z,87.23
2023-02-22T08:49:40.033Z,87.87
2023-02-22T08:52:24.964Z,87.66
2023-02-22T08:55:10.235Z,86.48
2023-02-22T08:57:55.444Z,86.97
2023-02-22T09:00:41.399Z,86.38
2023-02-22T09:03:26.765Z,87.17
2023-02-22T09:06:11.927Z,86.51
2023-02-22T09:08:56.829Z,86.38
2023-02-22T09:11:41.641Z,86.32
2023-02-22T09:14:26.721Z,86.05
2023-02-22T09:17:11.510Z,86.02
2023-02-22T09:19:56.439Z,86.62
2023-02-22T09:22:45.580Z,85.42
2023-02-22T09:25:31.388Z,85.53
2023-02-22T09:28:16.639Z,84.86
2023-02-22T09:31:02.072Z,84.64
2023-02-22T09:33:49.215Z,84.22
2023-02-22T09:36:34.173Z,84.33
2023-02-22T09:39:21.623Z,82.46
2023-02-22T09:42:18.813Z,82.70
2023-02-22T09:45:16.525Z,82.26
2023-02-22T09:48:20.937Z,82.07
2023-02-22T09:51:17.898Z,80.61
2023-02-22T09:54:08.910Z,81.11
2023-02-22T09:56:58.934Z,80.18
2023-02-22T09:59:54.336Z,79.20
2023-02-22T10:03:00.452Z,79.50
2023-02-22T10:06:01.746Z,79.23
2023-02-22T10:08:50.045Z,78.75
2023-02-22T10:11:47.057Z,77.18
2023-02-22T10:15:16.723Z,74.83
2023-02-22T10:18:39.043Z,74.75
2023-02-22T10:21:41.932Z,74.72
2023-02-22T10:25:09.569Z,73.61
2023-02-22T10:28:06.404Z,72.85
2023-02-22T10:30:57.576Z,72.95
2023-02-22T10:33:59.324Z,72.47
2023-02-22T10:36:47.588Z,72.97
2023-02-22T10:39:40.159Z,74.15
2023-02-22T10:42:27.492Z,72.95
2023-02-22T10:45:32.979Z,72.43
2023-02-22T10:48:20.997Z,72.72
2023-02-22T10:51:08.481Z,72.62
2023-02-22T10:54:08.771Z,72.56
2023-02-22T10:56:56.582Z,73.01
2023-02-22T10:59:42.459Z,73.07
2023-02-22T11:02:35.113Z,71.60
2023-02-22T11:05:29.626Z,71.02
2023-02-22T11:08:20.419Z,70.86
2023-02-22T11:11:24.556Z,70.77
2023-02-22T11:14:11.312Z,70.20
2023-02-22T11:16:59.668Z,70.84
2023-02-22T11:19:49.745Z,70.64
2023-02-22T11:22:42.177Z,70.61
2023-02-22T11:25:34.622Z,71.33
2023-02-22T11:28:33.118Z,70.94
2023-02-22T11:31:44.842Z,69.97
2023-02-22T11:34:36.827Z,69.88
2023-02-22T11:37:27.467Z,70.85
2023-02-22T11:40:19.980Z,69.80
2023-02-22T11:43:16.173Z,69.13
2023-02-22T11:46:13.659Z,67.95
2023-02-22T11:49:05.508Z,68.26
2023-02-22T11:52:01.315Z,69.46
2023-02-22T11:55:06.059Z,68.23
2023-02-22T11:58:13.958Z,68.20
2023-02-22T12:01:11.993Z,68.95
2023-02-22T12:04:36.522Z,71.19
2023-02-22T12:07:48.814Z,68.79
2023-02-22T12:10:55.731Z,68.78
2023-02-22T12:14:07.471Z,70.12
2023-02-22T12:17:35.037Z,68.81
2023-02-22T12:20:25.035Z,67.96
2023-02-22T12:23:10.096Z,68.41
2023-02-22T12:26:01.182Z,67.47
2023-02-22T12:29:00.264Z,68.27
2023-02-22T12:31:52.390Z,67.68
2023-02-22T12:34:42.456Z,68.14
2023-02-22T12:37:57.576Z,68.36
2023-02-22T12:41:06.008Z,67.52
2023-02-22T12:44:03.024Z,67.07
2023-02-22T12:46:53.182Z,67.26
2023-02-22T12:49:51.913Z,66.62
2023-02-22T12:52:47.684Z,66.34
2023-02-22T12:55:45.547Z,66.84
2023-02-22T12:58:56.895Z,66.65
2023-02-22T13:01:45.646Z,67.76
2023-02-22T13:04:32.743Z,67.20
2023-02-22T13:07:50.441Z,68.44
2023-02-22T13:10:56.551Z,68.18
2023-02-22T13:14:16.855Z,68.70
2023-02-22T13:17:14.994Z,68.17
2023-02-22T13:20:41.202Z,67.70
2023-02-22T13:23:35.204Z,67.77
2023-02-22T13:26:30.156Z,69.38
2023-02-22T13:29:34.480Z,68.03
2023-02-22T13:32:52.255Z,68.25
2023-02-22T13:36:12.497Z,68.00
2023-02-22T13:39:43.696Z,68.78
2023-02-22T13:42:44.883Z,67.42
2023-02-22T13:45:48.454Z,68.41
2023-02-22T13:48:53.781Z,67.31
2023-02-22T13:51:56.674Z,67.90
2023-02-22T13:54:46.513Z,67.60
2023-02-22T13:57:48.810Z,67.31
2023-02-22T14:00:50.737Z,68.20
2023-02-22T14:03:40.726Z,70.16
2023-02-22T14:06:41.430Z,69.41
2023-02-22T14:09:50.287Z,70.68
2023-02-22T14:12:38.015Z,70.46
2023-02-22T14:15:31.206Z,70.82
2023-02-22T14:18:17.472Z,70.85
2023-02-22T14:21:07.284Z,70.73
2023-02-22T14:23:55.798Z,70.38
2023-02-22T14:26:53.566Z,70.36
2023-02-22T14:29:50.466Z,70.37
2023-02-22T14:32:35.748Z,70.31
2023-02-22T14:35:28.678Z,70.25
2023-02-22T14:38:20.054Z,70.48
2023-02-22T14:41:06.240Z,70.55
2023-02-22T14:43:54.397Z,69.97
2023-02-22T14:46:42.706Z,71.51
2023-02-22T14:49:30.701Z,70.38
2023-02-22T14:52:30.408Z,71.44
2023-02-22T14:55:23.462Z,71.22
2023-02-22T14:58:25.953Z,71.91
2023-02-22T15:02:05.708Z,71.40
2023-02-22T15:04:43.767Z,71.06
2023-02-22T15:07:32.372Z,71.28
2023-02-22T15:10:28.634Z,71.19
2023-02-22T15:13:15.356Z,71.45
2023-02-22T15:16:03.550Z,71.88
2023-02-22T15:18:53.774Z,72.53
2023-02-22T15:21:45.792Z,72.92
2023-02-22T15:24:34.246Z,72.91
2023-02-22T15:27:19.616Z,72.75
2023-02-22T15:30:16.948Z,73.07
2023-02-22T15:33:17.428Z,73.52
2023-02-22T15:36:02.483Z,73.82
2023-02-22T15:38:50.152Z,73.79
2023-02-22T15:41:35.930Z,73.59
2023-02-22T15:44:23.893Z,73.80
2023-02-22T15:47:18.294Z,73.38
2023-02-22T15:50:33.973Z,74.09
2023-02-22T15:53:29.097Z,74.31
2023-02-22T15:56:25.842Z,74.34
2023-02-22T15:59:18.340Z,74.99
2023-02-22T16:02:03.371Z,75.15
2023-02-22T16:04:59.163Z,75.03
2023-02-22T16:07:50.084Z,75.65
2023-02-22T16:10:35.478Z,75.79
2023-02-22T16:13:32.124Z,76.26
2023-02-22T16:16:27.936Z,76.36
2023-02-22T16:19:32.770Z,76.44
2023-02-22T16:22:34.008Z,76.88
2023-02-22T16:25:19.110Z,77.15
2023-02-22T16:28:27.010Z,76.90
2023-02-22T16:31:12.129Z,77.66
2023-02-22T16:33:58.446Z,77.46
2023-02-22T16:36:46.235Z,77.39
2023-02-22T16:39:35.575Z,77.77
2023-02-22T16:42:24.419Z,77.74
2023-02-22T16:45:15.184Z,77.42
2023-02-22T16:48:00.507Z,77.88
2023-02-22T16:50:48.179Z,77.68
2023-02-22T16:53:34.072Z,78.25
2023-02-22T16:56:22.457Z,77.99
2023-02-22T16:59:14.109Z,78.43
2023-02-22T17:01:59.572Z,78.26
2023-02-22T17:04:49.185Z,78.74
2023-02-22T17:07:34.429Z,78.78
2023-02-22T17:10:19.752Z,78.73
2023-02-22T17:13:21.269Z,78.57
2023-02-22T17:16:13.606Z,78.60
2023-02-22T17:18:59.099Z,79.04
2023-02-22T17:21:44.763Z,79.37
2023-02-22T17:24:29.691Z,79.21
2023-02-22T17:27:14.837Z,79.31
2023-02-22T17:30:02.647Z,79.12
2023-02-22T17:32:50.029Z,79.63
2023-02-22T17:35:41.117Z,79.56
2023-02-22T17:38:32.943Z,79.55
2023-02-22T17:41:21.013Z,79.34
2023-02-22T17:44:09.927Z,79.64
2023-02-22T17:46:56.678Z,79.33
2023-02-22T17:49:44.878Z,78.91
2023-02-22T17:52:30.351Z,79.50
2023-02-22T17:55:17.023Z,80.10
2023-02-22T17:58:02.249Z,79.88
2023-02-22T18:00:58.279Z,80.04
2023-02-22T18:03:43.344Z,80.25
2023-02-22T18:06:30.580Z,80.17
2023-02-22T18:09:17.779Z,80.55
2023-02-22T18:12:02.721Z,80.75
2023-02-22T18:14:50.101Z,81.21
2023-02-22T18:17:37.475Z,81.04
2023-02-22T18:20:38.546Z,81.04
2023-02-22T18:23:27.781Z,81.09
2023-02-22T18:26:21.256Z,80.95
2023-02-22T18:29:12.193Z,81.08
2023-02-22T18:31:58.290Z,81.10
2023-02-22T18:34:44.072Z,81.68
2023-02-22T18:37:32.159Z,81.33
2023-02-22T18:40:19.143Z,81.19
2023-02-22T18:43:06.956Z,81.52
2023-02-22T18:45:53.811Z,81.08
2023-02-22T18:48:39.644Z,81.19
2023-02-22T18:51:27.359Z,81.19
2023-02-22T18:54:13.986Z,81.55
2023-02-22T18:57:00.512Z,81.42
2023-02-22T18:59:47.374Z,81.15
2023-02-22T19:02:32.717Z,81.62
2023-02-22T19:05:21.527Z,81.44
2023-02-22T19:08:11.577Z,81.63
2023-02-22T19:11:02.565Z,81.13
2023-02-22T19:13:50.257Z,81.89
2023-02-22T19:16:35.184Z,81.95
2023-02-22T19:19:28.596Z,81.63
2023-02-22T19:22:16.463Z,82.02
2023-02-22T19:25:01.887Z,81.95
2023-02-22T19:27:49.160Z,82.55
2023-02-22T19:30:34.194Z,82.37
2023-02-22T19:33:21.227Z,82.07
2023-02-22T19:36:09.064Z,81.84
2023-02-22T19:38:54.182Z,81.75
2023-02-22T19:41:42.645Z,81.46
2023-02-22T19:44:32.036Z,81.89
2023-02-22T19:47:21.522Z,81.84
2023-02-22T19:50:07.106Z,80.78
2023-02-22T19:52:53.772Z,81.22
2023-02-22T19:55:41.232Z,81.08
2023-02-22T19:58:28.529Z,82.03
2023-02-22T20:01:23.668Z,81.46
2023-02-22T20:04:11.806Z,82.00
2023-02-22T20:06:59.005Z,82.07
2023-02-22T20:09:45.857Z,81.55
2023-02-22T20:12:33.615Z,82.38
2023-02-22T20:15:23.848Z,81.70
2023-02-22T20:18:18.503Z,82.56
2023-02-22T20:21:09.484Z,82.30
2023-02-22T20:24:02.567Z,82.11
2023-02-22T20:26:50.357Z,81.99
2023-02-22T20:29:48.289Z,81.75
2023-02-22T20:32:33.574Z,81.99
2023-02-22T20:38:22.069Z,82.39
2023-02-22T20:41:14.775Z,83.26
2023-02-22T20:44:02.728Z,82.93
2023-02-22T20:46:58.448Z,84.01
2023-02-22T20:49:43.735Z,82.94
2023-02-22T20:52:29.294Z,83.56
2023-02-22T20:55:22.101Z,84.16
2023-02-22T20:58:07.313Z,83.82
2023-02-22T21:00:56.197Z,83.77
2023-02-22T21:03:43.507Z,84.81
2023-02-22T21:06:31.186Z,84.71
2023-02-22T21:09:20.519Z,84.38
2023-02-22T21:12:13.273Z,85.32
2023-02-22T21:15:00.887Z,85.60
2023-02-22T21:17:47.749Z,85.29
2023-02-22T21:20:38.384Z,86.07
2023-02-22T21:23:23.499Z,86.57
2023-02-22T21:26:15.314Z,86.25
2023-02-22T21:29:07.153Z,86.86
2023-02-22T21:31:53.409Z,86.64
2023-02-22T21:34:41.387Z,86.77
2023-02-22T21:37:28.866Z,87.10
2023-02-22T21:40:19.654Z,87.19
2023-02-22T21:43:04.654Z,87.65
2023-02-22T21:45:53.616Z,86.91
2023-02-22T21:48:44.953Z,87.29
2023-02-22T21:51:32.702Z,86.83
2023-02-22T21:54:17.397Z,87.63
2023-02-22T21:57:02.605Z,87.26
2023-02-22T21:59:48.644Z,88.36
2023-02-22T22:02:34.483Z,87.57
2023-02-22T22:05:32.535Z,87.36
2023-02-22T22:08:21.812Z,87.94
2023-02-22T22:11:14.956Z,87.74
2023-02-22T22:14:11.293Z,88.25
2023-02-22T22:16:58.730Z,88.70
2023-02-22T22:19:44.721Z,88.06
2023-02-22T22:22:33.476Z,88.39
2023-02-22T22:25:18.861Z,88.54
2023-02-22T22:28:09.294Z,88.38
2023-02-22T22:30:54.522Z,89.02
2023-02-22T22:33:44.527Z,88.74
2023-02-22T22:36:32.202Z,89.09
2023-02-22T22:39:21.811Z,89.04
2023-02-22T22:42:08.902Z,89.62
2023-02-22T22:44:54.290Z,89.53
2023-02-22T22:47:48.260Z,89.05
2023-02-22T22:50:34.065Z,88.92
2023-02-22T22:53:20.873Z,89.35
2023-02-22T22:56:19.057Z,89.19
2023-02-22T22:59:07.465Z,89.53
2023-02-22T23:01:53.112Z,89.43
2023-02-22T23:04:38.249Z,90.06
2023-02-22T23:07:25.869Z,89.33
2023-02-22T23:10:13.643Z,89.19
2023-02-22T23:12:59.493Z,89.09
2023-02-22T23:15:48.537Z,89.58
2023-02-22T23:18:34.943Z,89.11
2023-02-22T23:24:36.879Z,89.73
2023-02-22T23:27:23.590Z,89.99
2023-02-22T23:30:14.872Z,90.03
2023-02-22T23:33:01.116Z,90.01
2023-02-22T23:35:50.353Z,89.99
2023-02-22T23:38:35.667Z,90.13
2023-02-22T23:41:20.753Z,89.60
2023-02-22T23:44:17.365Z,90.09
2023-02-22T23:47:03.750Z,89.72
2023-02-22T23:49:49.662Z,90.21
2023-02-22T23:52:37.264Z,90.06
2023-02-22T23:55:24.417Z,90.15
2023-02-22T23:58:10.220Z,89.79
